createdAt,value
2018-12-21T00:01:14.199Z,65.10
2018-12-21T00:03:41.736Z,65.10
2018-12-21T00:06:09.411Z,65.50
2018-12-21T00:08:36.928Z,65.20
2018-12-21T00:11:04.458Z,65.60
2018-12-21T00:13:37.218Z,65.50
2018-12-21T00:16:04.777Z,65.20
2018-12-21T00:18:32.316Z,65.10
2018-12-21T00:20:59.833Z,65.40
2018-12-21T00:23:27.396Z,65.20
2018-12-21T00:25:54.921Z,65.80
2018-12-21T00:28:22.469Z,65.10
2018-12-21T00:30:49.577Z,65.00
2018-12-21T00:33:22.736Z,64.80
2018-12-21T00:35:56.000Z,64.90
2018-12-21T00:38:29.146Z,64.60
2018-12-21T00:41:02.337Z,64.30
2018-12-21T00:43:32.046Z,64.40
2018-12-21T00:46:01.076Z,64.40
2018-12-21T00:48:29.700Z,64.40
2018-12-21T00:50:57.217Z,64.30
2018-12-21T00:53:24.741Z,63.90
2018-12-21T00:55:52.313Z,64.40
2018-12-21T00:58:19.919Z,64.40
2018-12-21T01:00:47.767Z,65.70
2018-12-21T01:03:15.372Z,65.30
2018-12-21T01:05:42.979Z,65.40
2018-12-21T01:08:10.595Z,65.30
2018-12-21T01:10:38.207Z,65.70
2018-12-21T01:13:05.771Z,66.20
2018-12-21T01:15:33.418Z,66.60
2018-12-21T01:18:01.734Z,66.70
2018-12-21T01:20:29.396Z,66.90
2018-12-21T01:22:56.920Z,66.90
2018-12-21T01:25:24.497Z,66.90
2018-12-21T01:27:52.386Z,66.70
2018-12-21T01:30:19.901Z,67.10
2018-12-21T01:32:47.505Z,67.40
2018-12-21T01:35:15.069Z,67.50
2018-12-21T01:37:42.590Z,67.60
2018-12-21T01:40:10.150Z,67.60
2018-12-21T01:42:37.663Z,68.20
2018-12-21T01:45:06.401Z,67.50
2018-12-21T01:47:34.017Z,67.80
2018-12-21T01:50:01.551Z,69.00
2018-12-21T01:52:29.106Z,69.30
2018-12-21T01:54:56.872Z,69.30
2018-12-21T01:57:25.005Z,69.00
2018-12-21T01:59:53.819Z,69.00
2018-12-21T02:02:21.604Z,69.40
2018-12-21T02:04:49.133Z,69.10
2018-12-21T02:07:16.722Z,69.10
2018-12-21T02:09:44.344Z,69.40
2018-12-21T02:12:11.925Z,69.40
2018-12-21T02:14:39.786Z,69.90
2018-12-21T02:17:07.331Z,69.00
2018-12-21T02:19:34.867Z,68.80
2018-12-21T02:22:02.377Z,69.10
2018-12-21T02:24:29.925Z,69.80
2018-12-21T02:26:57.809Z,69.10
2018-12-21T02:29:25.345Z,69.00
2018-12-21T02:31:52.908Z,69.10
2018-12-21T02:34:20.413Z,69.40
2018-12-21T02:36:47.949Z,69.60
2018-12-21T02:39:15.482Z,69.40
2018-12-21T02:41:43.125Z,69.60
2018-12-21T02:44:11.141Z,69.40
2018-12-21T02:46:38.692Z,69.70
2018-12-21T02:49:06.261Z,69.30
2018-12-21T02:51:33.828Z,69.60
2018-12-21T02:54:01.347Z,69.90
2018-12-21T02:56:28.879Z,69.80
2018-12-21T02:58:56.402Z,70.00
2018-12-21T03:01:23.980Z,69.60
2018-12-21T03:03:51.685Z,70.00
2018-12-21T03:06:19.193Z,69.90
2018-12-21T03:08:46.756Z,69.90
2018-12-21T03:11:14.311Z,70.00
2018-12-21T03:13:41.867Z,70.10
2018-12-21T03:16:09.432Z,70.00
2018-12-21T03:18:37.075Z,70.20
2018-12-21T03:21:04.649Z,70.20
2018-12-21T03:23:32.209Z,70.20
2018-12-21T03:25:59.775Z,69.40
2018-12-21T03:28:27.321Z,69.10
2018-12-21T03:30:54.853Z,68.80
2018-12-21T03:33:22.434Z,68.70
2018-12-21T03:35:50.610Z,69.30
2018-12-21T03:38:18.174Z,68.20
2018-12-21T03:40:45.698Z,68.50
2018-12-21T03:43:13.518Z,68.50
2018-12-21T03:45:41.366Z,68.50
2018-12-21T03:48:08.940Z,68.40
2018-12-21T03:50:36.447Z,68.80
2018-12-21T03:53:03.997Z,67.00
2018-12-21T03:55:31.560Z,67.40
2018-12-21T03:57:59.077Z,67.00
2018-12-21T04:00:26.626Z,67.10
2018-12-21T04:02:54.383Z,67.10
2018-12-21T04:05:21.957Z,66.70
2018-12-21T04:07:49.583Z,66.80
2018-12-21T04:10:17.162Z,66.60
2018-12-21T04:12:44.700Z,66.30
2018-12-21T04:15:12.356Z,66.50
2018-12-21T04:17:40.149Z,66.90
2018-12-21T04:20:07.872Z,66.80
2018-12-21T04:22:35.427Z,66.50
2018-12-21T04:25:03.199Z,67.30
2018-12-21T04:27:30.722Z,66.70
2018-12-21T04:29:58.277Z,66.50
2018-12-21T04:32:25.801Z,66.80
2018-12-21T04:34:53.352Z,66.60
2018-12-21T04:37:21.253Z,66.40
2018-12-21T04:39:48.834Z,66.70
2018-12-21T04:42:16.344Z,66.10
2018-12-21T04:44:43.945Z,65.80
2018-12-21T04:47:11.559Z,65.80
2018-12-21T04:49:39.078Z,65.80
2018-12-21T04:52:06.633Z,65.60
2018-12-21T04:54:34.167Z,65.40
2018-12-21T04:57:01.686Z,65.80
2018-12-21T04:59:29.383Z,65.70
2018-12-21T05:01:57.348Z,66.00
2018-12-21T05:04:25.147Z,66.10
2018-12-21T05:06:52.710Z,66.40
2018-12-21T05:09:20.272Z,66.40
2018-12-21T05:11:47.886Z,66.60
2018-12-21T05:14:15.532Z,66.60
2018-12-21T05:16:43.189Z,66.50
2018-12-21T05:19:10.704Z,66.90
2018-12-21T05:21:38.277Z,66.60
2018-12-21T05:24:05.790Z,67.10
2018-12-21T05:26:33.489Z,67.40
2018-12-21T05:29:01.066Z,66.90
2018-12-21T05:31:28.802Z,66.80
2018-12-21T05:33:56.758Z,66.80
2018-12-21T05:36:24.282Z,66.10
2018-12-21T05:38:51.851Z,66.00
2018-12-21T05:41:19.378Z,66.10
2018-12-21T05:43:47.074Z,66.00
2018-12-21T05:46:14.654Z,66.70
2018-12-21T05:48:42.195Z,66.70
2018-12-21T05:51:09.721Z,66.70
2018-12-21T05:53:37.286Z,66.40
2018-12-21T05:56:04.839Z,66.10
2018-12-21T05:58:32.397Z,66.10
2018-12-21T06:00:59.996Z,65.70
2018-12-21T06:03:27.553Z,65.70
2018-12-21T06:05:55.303Z,66.10
2018-12-21T06:08:22.835Z,66.00
2018-12-21T06:10:50.922Z,66.60
2018-12-21T06:13:18.437Z,66.00
2018-12-21T06:15:46.862Z,65.90
2018-12-21T06:18:14.436Z,65.80
2018-12-21T06:20:42.118Z,66.10
2018-12-21T06:23:09.883Z,65.90
2018-12-21T06:25:37.412Z,65.90
2018-12-21T06:28:05.000Z,65.90
2018-12-21T06:30:32.562Z,66.40
2018-12-21T06:33:00.116Z,66.40
2018-12-21T06:35:27.657Z,66.80
2018-12-21T06:37:55.213Z,67.10
2018-12-21T06:40:22.804Z,66.70
2018-12-21T06:42:50.837Z,66.60
2018-12-21T06:45:18.861Z,67.40
2018-12-21T06:47:46.706Z,67.50
2018-12-21T06:50:14.285Z,67.30
2018-12-21T06:52:41.805Z,67.50
2018-12-21T06:55:09.608Z,67.80
2018-12-21T06:57:37.275Z,66.70
2018-12-21T07:00:09.503Z,66.80
2018-12-21T07:02:37.060Z,67.10
2018-12-21T07:05:06.969Z,67.80
2018-12-21T07:07:34.530Z,67.60
2018-12-21T07:10:02.108Z,67.00
2018-12-21T07:12:29.700Z,67.20
2018-12-21T07:14:57.260Z,67.10
2018-12-21T07:17:24.905Z,66.60
2018-12-21T07:19:52.604Z,66.20
2018-12-21T07:22:20.147Z,65.90
2018-12-21T07:24:48.426Z,66.10
2018-12-21T07:27:15.988Z,66.10
2018-12-21T07:29:43.549Z,65.60
2018-12-21T07:32:11.597Z,65.60
2018-12-21T07:34:39.791Z,66.10
2018-12-21T07:37:07.462Z,67.00
2018-12-21T07:39:35.021Z,67.60
2018-12-21T07:42:02.597Z,68.50
2018-12-21T07:44:35.457Z,69.30
2018-12-21T07:47:05.074Z,69.70
2018-12-21T07:49:32.726Z,70.50
2018-12-21T07:52:00.346Z,71.00
2018-12-21T07:54:27.963Z,71.50
2018-12-21T07:56:55.595Z,71.90
2018-12-21T07:59:23.353Z,72.30
2018-12-21T08:01:50.906Z,72.70
2018-12-21T08:04:18.950Z,73.00
2018-12-21T08:06:46.641Z,72.90
2018-12-21T08:09:14.283Z,72.70
2018-12-21T08:11:42.600Z,72.40
2018-12-21T08:14:10.190Z,72.80
2018-12-21T08:16:37.772Z,73.00
2018-12-21T08:19:05.310Z,73.30
2018-12-21T08:21:32.893Z,73.30
2018-12-21T08:24:00.626Z,73.60
2018-12-21T08:26:28.259Z,73.80
2018-12-21T08:28:55.867Z,73.70
2018-12-21T08:31:24.855Z,74.60
2018-12-21T08:33:54.078Z,73.80
2018-12-21T08:36:22.093Z,74.30
2018-12-21T08:38:49.982Z,74.00
2018-12-21T08:41:17.543Z,74.00
2018-12-21T08:43:45.380Z,74.40
2018-12-21T08:46:13.212Z,74.70
2018-12-21T08:48:40.795Z,74.10
2018-12-21T08:51:08.341Z,74.40
2018-12-21T08:53:35.857Z,74.50
2018-12-21T08:56:03.418Z,74.00
2018-12-21T08:58:31.076Z,73.60
2018-12-21T09:00:58.645Z,73.90
2018-12-21T09:03:27.888Z,73.80
2018-12-21T09:05:55.506Z,73.50
2018-12-21T09:08:23.060Z,73.00
2018-12-21T09:10:50.625Z,72.40
2018-12-21T09:13:18.300Z,73.20
2018-12-21T09:15:46.051Z,72.80
2018-12-21T09:18:13.607Z,72.00
2018-12-21T09:20:41.170Z,72.00
2018-12-21T09:23:08.728Z,72.20
2018-12-21T09:25:36.438Z,72.70
2018-12-21T09:28:04.920Z,72.20
2018-12-21T09:30:32.494Z,71.80
2018-12-21T09:33:00.070Z,72.00
2018-12-21T09:35:27.633Z,72.10
2018-12-21T09:37:55.754Z,71.40
2018-12-21T09:40:24.126Z,71.70
2018-12-21T09:42:53.454Z,71.20
2018-12-21T09:45:21.536Z,71.40
2018-12-21T09:47:49.337Z,71.60
2018-12-21T09:50:16.983Z,72.50
2018-12-21T09:52:44.578Z,73.00
2018-12-21T09:55:12.190Z,73.40
2018-12-21T09:57:40.705Z,74.00
2018-12-21T10:00:09.860Z,73.50
2018-12-21T10:02:37.640Z,73.80
2018-12-21T10:05:07.873Z,74.10
2018-12-21T10:07:35.638Z,74.10
2018-12-21T10:10:04.678Z,73.30
2018-12-21T10:12:32.386Z,73.80
2018-12-21T10:15:00.183Z,73.30
2018-12-21T10:17:27.847Z,73.30
2018-12-21T10:19:55.439Z,72.90
2018-12-21T10:22:23.017Z,73.00
2018-12-21T10:24:50.610Z,72.60
2018-12-21T10:27:18.420Z,72.60
2018-12-21T10:29:46.308Z,71.40
2018-12-21T10:32:13.823Z,71.20
2018-12-21T10:34:41.677Z,71.40
2018-12-21T10:37:09.441Z,70.70
2018-12-21T10:39:37.196Z,70.70
2018-12-21T10:42:04.781Z,70.50
2018-12-21T10:44:32.406Z,70.20
2018-12-21T10:47:00.169Z,70.10
2018-12-21T10:49:31.870Z,69.80
2018-12-21T10:51:57.267Z,69.80
2018-12-21T10:54:26.936Z,69.10
2018-12-21T10:56:54.645Z,69.90
2018-12-21T10:59:22.165Z,70.00
2018-12-21T11:01:50.465Z,70.20
2018-12-21T11:04:18.229Z,70.20
2018-12-21T11:06:45.753Z,70.30
2018-12-21T11:09:14.219Z,70.60
2018-12-21T11:11:41.769Z,70.80
2018-12-21T11:14:09.350Z,70.30
2018-12-21T11:16:37.157Z,70.60
2018-12-21T11:19:04.747Z,70.90
2018-12-21T11:21:32.277Z,72.10
2018-12-21T11:23:59.844Z,72.70
2018-12-21T11:26:27.502Z,73.40
2018-12-21T11:28:55.140Z,74.00
2018-12-21T11:31:22.880Z,74.70
2018-12-21T11:33:50.457Z,74.80
2018-12-21T11:36:17.977Z,75.00
2018-12-21T11:38:45.610Z,75.40
2018-12-21T11:41:13.214Z,76.00
2018-12-21T11:43:40.743Z,76.30
2018-12-21T11:46:08.322Z,76.30
2018-12-21T11:48:35.850Z,76.10
2018-12-21T11:51:03.503Z,76.40
2018-12-21T11:53:31.045Z,77.00
2018-12-21T11:55:59.220Z,77.20
2018-12-21T11:58:26.861Z,77.30
2018-12-21T12:00:54.671Z,77.30
2018-12-21T12:03:22.413Z,77.20
2018-12-21T12:05:50.839Z,76.70
2018-12-21T12:08:19.150Z,76.80
2018-12-21T12:10:46.787Z,76.80
2018-12-21T12:13:14.393Z,76.90
2018-12-21T12:15:41.913Z,77.00
2018-12-21T12:18:09.612Z,77.00
2018-12-21T12:20:37.137Z,77.10
2018-12-21T12:23:04.718Z,77.50
2018-12-21T12:25:32.299Z,77.50
2018-12-21T12:28:00.059Z,77.30
2018-12-21T12:30:27.693Z,77.40
2018-12-21T12:32:55.248Z,77.60
2018-12-21T12:35:22.756Z,77.60
2018-12-21T12:37:50.306Z,77.80
2018-12-21T12:40:18.630Z,77.40
2018-12-21T12:42:46.202Z,77.40
2018-12-21T12:45:13.713Z,76.90
2018-12-21T12:47:41.262Z,77.40
2018-12-21T12:50:08.874Z,77.30
2018-12-21T12:52:36.406Z,77.00
2018-12-21T12:55:04.868Z,76.60
2018-12-21T12:57:32.409Z,76.40
2018-12-21T13:00:00.758Z,76.40
2018-12-21T13:02:28.356Z,75.70
2018-12-21T13:04:55.877Z,75.90
2018-12-21T13:07:23.677Z,75.90
2018-12-21T13:09:51.347Z,75.90
2018-12-21T13:12:18.917Z,75.70
2018-12-21T13:14:46.504Z,75.70
2018-12-21T13:17:14.064Z,75.90
2018-12-21T13:19:41.649Z,75.90
2018-12-21T13:22:09.262Z,75.90
2018-12-21T13:24:37.050Z,76.10
2018-12-21T13:27:04.682Z,75.80
2018-12-21T13:29:32.267Z,75.60
2018-12-21T13:31:59.810Z,75.60
2018-12-21T13:34:27.415Z,75.60
2018-12-21T13:36:55.019Z,75.70
2018-12-21T13:39:23.009Z,75.50
2018-12-21T13:41:50.664Z,75.40
2018-12-21T13:44:18.247Z,75.30
2018-12-21T13:46:45.771Z,75.10
2018-12-21T13:49:13.284Z,75.20
2018-12-21T13:51:40.899Z,75.20
2018-12-21T13:54:08.470Z,75.00
2018-12-21T13:56:36.020Z,75.10
2018-12-21T13:59:03.888Z,75.00
2018-12-21T14:01:31.457Z,75.30
2018-12-21T14:03:59.077Z,75.10
2018-12-21T14:06:26.956Z,75.30
2018-12-21T14:08:55.027Z,75.30
2018-12-21T14:11:22.639Z,75.20
2018-12-21T14:13:50.250Z,75.20
2018-12-21T14:16:17.813Z,75.20
2018-12-21T14:18:45.381Z,75.10
2018-12-21T14:21:12.955Z,75.20
2018-12-21T14:23:40.586Z,75.00
2018-12-21T14:26:08.134Z,75.70
2018-12-21T14:28:35.687Z,75.30
2018-12-21T14:31:03.582Z,75.30
2018-12-21T14:33:31.090Z,75.60
2018-12-21T14:35:58.749Z,75.70
2018-12-21T14:38:26.317Z,75.30
2018-12-21T14:40:54.430Z,74.90
2018-12-21T14:43:22.019Z,75.50
2018-12-21T14:45:49.530Z,75.30
2018-12-21T14:48:17.138Z,75.50
2018-12-21T14:50:44.698Z,75.60
2018-12-21T14:53:12.229Z,75.60
2018-12-21T14:55:39.805Z,75.70
2018-12-21T14:58:07.350Z,75.70
2018-12-21T15:00:34.972Z,75.80
2018-12-21T15:03:02.839Z,76.00
2018-12-21T15:05:30.415Z,76.40
2018-12-21T15:07:57.978Z,76.40
2018-12-21T15:10:25.953Z,76.50
2018-12-21T15:12:53.505Z,76.70
2018-12-21T15:15:21.057Z,76.50
2018-12-21T15:17:48.595Z,76.30
2018-12-21T15:20:17.098Z,76.40
2018-12-21T15:22:44.628Z,76.30
2018-12-21T15:25:12.335Z,76.30
2018-12-21T15:27:40.017Z,76.40
2018-12-21T15:30:09.124Z,76.20
2018-12-21T15:32:36.714Z,76.30
2018-12-21T15:35:04.948Z,76.40
2018-12-21T15:37:32.713Z,76.40
2018-12-21T15:40:00.372Z,76.20
2018-12-21T15:42:27.947Z,76.50
2018-12-21T15:44:55.503Z,76.40
2018-12-21T15:47:23.140Z,76.30
2018-12-21T15:49:50.840Z,76.50
2018-12-21T15:52:18.419Z,76.60
2018-12-21T15:54:45.972Z,76.30
2018-12-21T15:57:13.566Z,76.70
2018-12-21T15:59:41.405Z,77.30
2018-12-21T16:02:08.969Z,77.20
2018-12-21T16:04:36.503Z,77.20
2018-12-21T16:07:04.141Z,77.00
2018-12-21T16:09:31.809Z,77.20
2018-12-21T16:12:00.106Z,77.80
2018-12-21T16:14:34.258Z,77.70
2018-12-21T16:16:57.332Z,77.50
2018-12-21T16:19:24.886Z,77.50
2018-12-21T16:21:52.483Z,77.40
2018-12-21T16:24:20.092Z,77.20
2018-12-21T16:26:47.647Z,77.20
2018-12-21T16:29:15.519Z,77.10
2018-12-21T16:31:43.272Z,76.70
2018-12-21T16:34:10.860Z,76.60
2018-12-21T16:36:39.985Z,76.40
2018-12-21T16:39:07.727Z,76.50
2018-12-21T16:41:35.880Z,76.40
2018-12-21T16:44:03.426Z,76.40
2018-12-21T16:46:30.970Z,76.10
2018-12-21T16:48:58.546Z,75.90
2018-12-21T16:51:26.140Z,75.70
2018-12-21T16:53:53.669Z,75.80
2018-12-21T16:56:21.226Z,75.70
2018-12-21T16:58:48.804Z,75.70
2018-12-21T17:01:16.708Z,75.50
2018-12-21T17:03:44.233Z,75.60
2018-12-21T17:06:11.812Z,75.40
2018-12-21T17:08:39.616Z,75.40
2018-12-21T17:11:07.377Z,75.20
2018-12-21T17:13:34.916Z,75.70
2018-12-21T17:16:02.782Z,75.30
2018-12-21T17:18:30.373Z,75.10
2018-12-21T17:20:57.987Z,75.10
2018-12-21T17:23:25.510Z,75.60
2018-12-21T17:25:53.156Z,74.80
2018-12-21T17:28:21.588Z,74.60
2018-12-21T17:30:49.151Z,74.60
2018-12-21T17:33:16.723Z,74.50
2018-12-21T17:35:44.272Z,74.30
2018-12-21T17:38:11.827Z,74.40
2018-12-21T17:40:39.357Z,74.40
2018-12-21T17:43:06.921Z,74.30
2018-12-21T17:45:34.485Z,74.20
2018-12-21T17:48:02.973Z,73.90
2018-12-21T17:50:30.521Z,74.10
2018-12-21T17:52:58.073Z,74.80
2018-12-21T17:55:26.079Z,74.20
2018-12-21T17:57:53.891Z,74.30
2018-12-21T18:00:21.454Z,75.00
2018-12-21T18:02:49.193Z,73.80
2018-12-21T18:05:16.942Z,73.80
2018-12-21T18:07:44.541Z,73.80
2018-12-21T18:10:12.442Z,73.70
2018-12-21T18:12:39.955Z,73.60
2018-12-21T18:15:09.030Z,73.60
2018-12-21T18:17:36.730Z,73.30
2018-12-21T18:20:07.639Z,73.60
2018-12-21T18:22:35.322Z,73.50
2018-12-21T18:25:06.522Z,73.80
2018-12-21T18:27:34.127Z,74.30
2018-12-21T18:30:01.937Z,73.50
2018-12-21T18:32:29.758Z,73.50
2018-12-21T18:34:59.262Z,73.50
2018-12-21T18:37:26.830Z,73.50
2018-12-21T18:39:54.378Z,73.40
2018-12-21T18:42:21.892Z,73.50
2018-12-21T18:44:50.170Z,73.30
2018-12-21T18:47:17.685Z,74.10
2018-12-21T18:49:45.219Z,73.50
2018-12-21T18:52:12.780Z,73.40
2018-12-21T18:54:40.855Z,73.50
2018-12-21T18:57:08.410Z,73.40
2018-12-21T18:59:35.979Z,73.60
2018-12-21T19:02:04.376Z,73.50
2018-12-21T19:04:31.977Z,73.50
2018-12-21T19:06:59.551Z,73.40
2018-12-21T19:09:27.138Z,73.50
2018-12-21T19:11:54.700Z,73.40
2018-12-21T19:14:22.355Z,73.50
2018-12-21T19:16:49.941Z,73.50
2018-12-21T19:19:18.570Z,73.40
2018-12-21T19:21:47.254Z,73.40
2018-12-21T19:24:15.187Z,73.50
2018-12-21T19:26:42.928Z,73.40
2018-12-21T19:29:10.506Z,73.40
2018-12-21T19:31:38.968Z,73.50
2018-12-21T19:34:06.528Z,73.60
2018-12-21T19:36:34.498Z,73.40
2018-12-21T19:39:02.221Z,73.30
2018-12-21T19:41:29.742Z,73.70
2018-12-21T19:43:57.279Z,73.50
2018-12-21T19:46:24.854Z,73.50
2018-12-21T19:48:52.417Z,73.40
2018-12-21T19:51:20.111Z,73.50
2018-12-21T19:53:48.552Z,73.60
2018-12-21T19:56:18.050Z,73.60
2018-12-21T19:58:45.625Z,73.50
2018-12-21T20:01:13.300Z,73.50
2018-12-21T20:03:40.851Z,73.50
2018-12-21T20:06:08.533Z,73.60
2018-12-21T20:08:36.145Z,73.50
2018-12-21T20:11:03.854Z,73.50
2018-12-21T20:13:31.397Z,73.40
2018-12-21T20:15:58.954Z,73.70
2018-12-21T20:18:26.498Z,73.60
2018-12-21T20:20:54.160Z,73.50
2018-12-21T20:23:21.735Z,73.30
2018-12-21T20:25:49.283Z,73.50
2018-12-21T20:28:16.809Z,73.60
2018-12-21T20:30:44.361Z,73.50
2018-12-21T20:33:12.189Z,73.80
2018-12-21T20:35:39.824Z,73.80
2018-12-21T20:38:07.458Z,73.80
2018-12-21T20:40:35.016Z,73.90
2018-12-21T20:43:02.634Z,73.90
2018-12-21T20:45:30.665Z,73.80
2018-12-21T20:47:58.247Z,73.90
2018-12-21T20:50:25.957Z,73.70
2018-12-21T20:52:53.518Z,73.90
2018-12-21T20:55:21.219Z,73.90
2018-12-21T20:57:49.386Z,73.80
2018-12-21T21:00:17.018Z,73.80
2018-12-21T21:02:44.930Z,73.70
2018-12-21T21:05:12.474Z,73.80
2018-12-21T21:07:40.034Z,74.00
2018-12-21T21:10:11.073Z,73.80
2018-12-21T21:12:39.186Z,73.90
2018-12-21T21:15:09.970Z,73.90
2018-12-21T21:17:37.481Z,74.00
2018-12-21T21:20:11.969Z,74.00
2018-12-21T21:22:39.630Z,74.10
2018-12-21T21:25:07.289Z,74.00
2018-12-21T21:27:34.921Z,74.10
2018-12-21T21:30:03.671Z,73.90
2018-12-21T21:32:31.202Z,74.20
2018-12-21T21:34:58.755Z,74.20
2018-12-21T21:37:26.358Z,73.90
2018-12-21T21:39:53.900Z,73.80
2018-12-21T21:42:21.745Z,74.00
2018-12-21T21:44:49.268Z,74.50
2018-12-21T21:47:16.827Z,75.90
2018-12-21T21:49:44.419Z,75.10
2018-12-21T21:52:12.150Z,75.40
2018-12-21T21:54:39.690Z,75.60
2018-12-21T21:57:07.229Z,76.00
2018-12-21T21:59:34.790Z,75.70
2018-12-21T22:02:02.657Z,75.30
2018-12-21T22:04:30.212Z,75.30
2018-12-21T22:06:57.732Z,75.50
2018-12-21T22:09:25.343Z,75.30
2018-12-21T22:11:53.049Z,75.50
2018-12-21T22:14:20.613Z,75.70
2018-12-21T22:16:48.280Z,75.70
2018-12-21T22:19:15.846Z,76.10
2018-12-21T22:21:43.376Z,76.40
2018-12-21T22:24:10.986Z,77.30
2018-12-21T22:26:38.678Z,77.50
2018-12-21T22:29:06.227Z,77.40
2018-12-21T22:31:33.745Z,77.60
2018-12-21T22:34:01.344Z,77.60
2018-12-21T22:36:28.933Z,77.50
2018-12-21T22:38:56.484Z,77.50
2018-12-21T22:41:24.110Z,77.20
2018-12-21T22:43:51.619Z,76.80
2018-12-21T22:46:19.154Z,76.80
2018-12-21T22:48:46.658Z,76.70
2018-12-21T22:51:14.226Z,76.70
2018-12-21T22:53:41.777Z,76.40
2018-12-21T22:56:09.475Z,76.70
2018-12-21T22:58:37.037Z,77.80
2018-12-21T23:01:04.724Z,78.30
2018-12-21T23:03:32.296Z,79.10
2018-12-21T23:05:59.913Z,79.50
2018-12-21T23:08:27.455Z,79.80
2018-12-21T23:10:55.026Z,80.10
2018-12-21T23:13:22.542Z,79.80
2018-12-21T23:15:50.103Z,79.70
2018-12-21T23:18:17.618Z,79.70
2018-12-21T23:20:45.165Z,79.70
2018-12-21T23:23:12.686Z,79.50
2018-12-21T23:25:40.236Z,79.50
2018-12-21T23:28:07.800Z,79.30
2018-12-21T23:30:35.340Z,79.10
2018-12-21T23:33:02.941Z,79.10
2018-12-21T23:35:31.158Z,79.20
2018-12-21T23:37:58.754Z,79.10
2018-12-21T23:40:26.321Z,79.10
2018-12-21T23:42:53.888Z,78.90
2018-12-21T23:45:21.439Z,78.90
2018-12-21T23:47:48.980Z,79.10
2018-12-21T23:50:16.561Z,79.40
2018-12-21T23:52:44.229Z,80.20
2018-12-21T23:55:11.792Z,81.10
2018-12-21T23:57:39.320Z,81.70
